createdAt,value
2022-09-07T00:00:56.656Z,101198.69
2022-09-07T00:03:41.812Z,101193.56
2022-09-07T00:06:27.277Z,101205.88
2022-09-07T00:09:12.704Z,101198.78
2022-09-07T00:11:58.616Z,101200.38
2022-09-07T00:14:43.799Z,101187.25
2022-09-07T00:17:29.676Z,101179.97
2022-09-07T00:20:15.073Z,101183.00
2022-09-07T00:23:00.719Z,101192.25
2022-09-07T00:25:46.383Z,101199.56
2022-09-07T00:28:31.889Z,101195.13
2022-09-07T00:31:19.659Z,101196.63
2022-09-07T00:34:04.783Z,101192.47
2022-09-07T00:36:50.913Z,101196.03
2022-09-07T00:39:37.460Z,101194.38
2022-09-07T00:42:23.282Z,101198.91
2022-09-07T00:45:11.633Z,101192.00
2022-09-07T00:48:03.181Z,101180.06
2022-09-07T00:50:53.767Z,101179.03
2022-09-07T00:53:45.360Z,101179.91
2022-09-07T00:56:33.514Z,101186.06
2022-09-07T00:59:21.048Z,101188.88
2022-09-07T01:02:06.336Z,101189.81
2022-09-07T01:04:56.056Z,101183.69
2022-09-07T01:07:41.678Z,101182.44
2022-09-07T01:10:31.659Z,101180.94
2022-09-07T01:13:17.212Z,101185.47
2022-09-07T01:16:08.505Z,101190.75
2022-09-07T01:19:12.204Z,101176.00
2022-09-07T01:22:11.288Z,101173.28
2022-09-07T01:25:09.132Z,101172.50
2022-09-07T01:28:03.267Z,101169.03
2022-09-07T01:30:56.075Z,101161.56
2022-09-07T01:34:00.025Z,101172.44
2022-09-07T01:36:51.490Z,101165.78
2022-09-07T01:39:44.455Z,101154.38
2022-09-07T01:42:33.347Z,101157.19
2022-09-07T01:45:22.548Z,101147.66
2022-09-07T01:48:10.327Z,101160.88
2022-09-07T01:50:59.473Z,101162.84
2022-09-07T01:53:53.134Z,101154.66
2022-09-07T01:56:41.353Z,101158.81
2022-09-07T01:59:32.511Z,101145.53
2022-09-07T02:02:31.025Z,101141.00
2022-09-07T02:05:25.959Z,101142.00
2022-09-07T02:08:15.148Z,101133.56
2022-09-07T02:11:04.421Z,101130.22
2022-09-07T02:13:56.603Z,101128.75
2022-09-07T02:16:46.988Z,101125.25
2022-09-07T02:19:34.861Z,101123.81
2022-09-07T02:22:24.357Z,101126.38
2022-09-07T02:25:10.533Z,101132.69
2022-09-07T02:28:04.548Z,101126.75
2022-09-07T02:30:50.206Z,101140.13
2022-09-07T02:33:35.528Z,101141.00
2022-09-07T02:36:24.375Z,101138.59
2022-09-07T02:39:09.677Z,101135.03
2022-09-07T02:41:55.432Z,101137.31
2022-09-07T02:44:42.205Z,101138.16
2022-09-07T02:47:32.550Z,101137.22
2022-09-07T02:50:36.773Z,101146.56
2022-09-07T02:53:41.300Z,101143.75
2022-09-07T02:56:39.200Z,101136.00
2022-09-07T02:59:46.046Z,101127.50
2022-09-07T03:02:37.680Z,101121.63
2022-09-07T03:05:38.216Z,101114.47
2022-09-07T03:08:26.100Z,101105.50
2022-09-07T03:11:12.343Z,101105.03
2022-09-07T03:14:16.099Z,101105.03
2022-09-07T03:17:02.054Z,101093.50
2022-09-07T03:19:47.991Z,101090.56
2022-09-07T03:22:35.388Z,101091.41
2022-09-07T03:25:20.974Z,101080.56
2022-09-07T03:28:06.503Z,101086.13
2022-09-07T03:30:51.894Z,101081.22
2022-09-07T03:33:37.130Z,101083.59
2022-09-07T03:36:23.156Z,101070.47
2022-09-07T03:39:11.155Z,101067.09
2022-09-07T03:41:57.349Z,101059.97
2022-09-07T03:44:43.305Z,101059.16
2022-09-07T03:47:29.168Z,101053.28
2022-09-07T03:52:48.812Z,101050.09
2022-09-07T03:55:34.055Z,101039.53
2022-09-07T03:58:19.470Z,101041.78
2022-09-07T04:01:06.325Z,101046.09
2022-09-07T04:03:51.971Z,101042.72
2022-09-07T04:06:37.129Z,101040.81
2022-09-07T04:09:22.595Z,101032.13
2022-09-07T04:12:08.274Z,101025.94
2022-09-07T04:14:53.513Z,101038.94
2022-09-07T04:17:39.626Z,101040.28
2022-09-07T04:20:25.493Z,101035.91
2022-09-07T04:23:11.095Z,101035.63
2022-09-07T04:25:56.286Z,101041.03
2022-09-07T04:28:41.353Z,101041.97
2022-09-07T04:31:27.116Z,101039.22
2022-09-07T04:34:12.497Z,101034.28
2022-09-07T04:36:57.951Z,101024.56
2022-09-07T04:39:43.162Z,101025.44
2022-09-07T04:42:29.887Z,101017.22
2022-09-07T04:45:15.076Z,101017.97
2022-09-07T04:48:00.649Z,101023.66
2022-09-07T04:50:45.891Z,101025.28
2022-09-07T04:53:31.414Z,101034.84
2022-09-07T04:56:17.644Z,101035.97
2022-09-07T04:59:03.565Z,101035.88
2022-09-07T05:01:48.734Z,101039.75
2022-09-07T05:04:36.674Z,101049.09
2022-09-07T05:07:21.804Z,101060.63
2022-09-07T05:10:07.581Z,101112.38
2022-09-07T05:12:52.622Z,101168.00
2022-09-07T05:15:37.957Z,101170.56
2022-09-07T05:18:23.528Z,101150.72
2022-09-07T05:21:16.124Z,101161.50
2022-09-07T05:24:01.992Z,101188.69
2022-09-07T05:26:47.200Z,101177.16
2022-09-07T05:32:38.152Z,101200.94
2022-09-07T05:35:23.494Z,101206.78
2022-09-07T05:38:08.783Z,101180.91
2022-09-07T05:40:54.444Z,101176.53
2022-09-07T05:46:45.744Z,101160.09
2022-09-07T05:49:32.208Z,101147.78
2022-09-07T05:52:17.584Z,101167.19
2022-09-07T05:55:26.168Z,101143.25
2022-09-07T05:58:09.355Z,101153.59
2022-09-07T06:00:58.337Z,101144.72
2022-09-07T06:03:44.410Z,101137.72
2022-09-07T06:06:29.692Z,101129.13
2022-09-07T06:09:15.106Z,101146.91
2022-09-07T06:12:00.559Z,101120.63
2022-09-07T06:14:45.591Z,101118.84
2022-09-07T06:17:31.196Z,101124.22
2022-09-07T06:20:16.418Z,101128.00
2022-09-07T06:23:01.764Z,101136.09
2022-09-07T06:25:50.078Z,101134.66
2022-09-07T06:28:39.520Z,101137.78
2022-09-07T06:31:24.989Z,101143.63
2022-09-07T06:34:10.367Z,101143.22
2022-09-07T06:36:56.425Z,101134.84
2022-09-07T06:39:42.218Z,101139.72
2022-09-07T06:42:27.360Z,101138.13
2022-09-07T06:45:12.897Z,101132.09
2022-09-07T06:47:58.314Z,101129.22
2022-09-07T06:50:43.665Z,101121.00
2022-09-07T06:56:23.752Z,101118.53
2022-09-07T06:59:09.176Z,101134.97
2022-09-07T07:01:54.478Z,101131.50
2022-09-07T07:04:41.324Z,101127.78
2022-09-07T07:07:26.886Z,101129.66
2022-09-07T07:10:12.239Z,101112.69
2022-09-07T07:12:58.590Z,101092.63
2022-09-07T07:15:44.373Z,101073.56
2022-09-07T07:18:29.777Z,101074.34
2022-09-07T07:21:15.523Z,101066.84
2022-09-07T07:24:03.880Z,101062.91
2022-09-07T07:26:51.347Z,101057.16
2022-09-07T07:29:36.828Z,101060.16
2022-09-07T07:32:22.213Z,101058.56
2022-09-07T07:35:08.749Z,101069.50
2022-09-07T07:44:04.660Z,101056.00
2022-09-07T07:46:50.579Z,101048.16
2022-09-07T07:49:36.076Z,101036.34
2022-09-07T07:58:32.659Z,101042.16
2022-09-07T08:01:18.131Z,101059.16
2022-09-07T08:04:03.391Z,101074.16
2022-09-07T08:06:48.595Z,101057.34
2022-09-07T08:09:33.790Z,101063.22
2022-09-07T08:12:20.052Z,101065.47
2022-09-07T08:15:05.247Z,101049.06
2022-09-07T08:17:50.392Z,101031.78
2022-09-07T08:20:35.595Z,101008.31
2022-09-07T08:23:20.907Z,101009.09
2022-09-07T08:26:06.615Z,101013.00
2022-09-07T08:28:51.713Z,101029.25
2022-09-07T08:31:38.114Z,101019.41
2022-09-07T08:34:23.364Z,101039.31
2022-09-07T08:37:08.740Z,101067.34
2022-09-07T08:39:54.196Z,101086.25
2022-09-07T08:42:53.037Z,101081.81
2022-09-07T08:45:44.388Z,101069.53
2022-09-07T08:48:32.110Z,101046.41
2022-09-07T08:51:24.104Z,101045.75
2022-09-07T08:54:13.752Z,101035.03
2022-09-07T09:00:12.005Z,101046.03
2022-09-07T09:06:23.930Z,101069.56
2022-09-07T09:09:32.090Z,101063.91
2022-09-07T09:12:37.879Z,101060.97
2022-09-07T09:15:30.780Z,101063.97
2022-09-07T09:18:27.373Z,101059.72
2022-09-07T09:21:14.952Z,101056.97
2022-09-07T09:24:02.267Z,101046.72
2022-09-07T09:29:40.448Z,101059.84
2022-09-07T09:32:33.409Z,101056.84
2022-09-07T09:35:31.742Z,101062.19
2022-09-07T09:38:29.013Z,101071.38
2022-09-07T09:41:15.515Z,101059.91
2022-09-07T09:44:01.009Z,101057.47
2022-09-07T09:47:29.188Z,101059.31
2022-09-07T09:49:53.773Z,101059.53
2022-09-07T09:52:49.220Z,101049.16
2022-09-07T09:55:37.468Z,101049.41
2022-09-07T10:03:10.515Z,101044.22
2022-09-07T10:04:41.774Z,101036.41
2022-09-07T10:07:28.409Z,101015.50
2022-09-07T10:10:16.365Z,101030.09
2022-09-07T10:13:01.519Z,101028.78
2022-09-07T10:15:50.164Z,101021.03
2022-09-07T10:18:41.347Z,101020.63
2022-09-07T10:21:30.467Z,101016.69
2022-09-07T10:24:15.950Z,101018.06
2022-09-07T10:27:01.256Z,101016.25
2022-09-07T10:29:46.290Z,101027.72
2022-09-07T10:32:44.085Z,101031.13
2022-09-07T10:36:05.040Z,101023.22
2022-09-07T10:38:54.767Z,101020.25
2022-09-07T10:41:47.811Z,101012.47
2022-09-07T10:44:43.573Z,101010.28
2022-09-07T10:47:38.263Z,101003.22
2022-09-07T10:50:36.235Z,101005.25
2022-09-07T10:53:42.057Z,101013.72
2022-09-07T10:56:31.587Z,101016.50
2022-09-07T10:59:17.003Z,101012.50
2022-09-07T11:02:08.387Z,101004.84
2022-09-07T11:05:01.214Z,101004.78
2022-09-07T11:08:05.055Z,101003.44
2022-09-07T11:11:08.692Z,100996.28
2022-09-07T11:14:12.061Z,100991.88
2022-09-07T11:17:01.666Z,100999.44
2022-09-07T11:19:52.259Z,101007.53
2022-09-07T11:22:42.179Z,101018.81
2022-09-07T11:25:41.915Z,101006.09
2022-09-07T11:28:46.148Z,100999.69
2022-09-07T11:31:37.729Z,100998.34
2022-09-07T11:34:31.870Z,100998.34
2022-09-07T11:37:20.320Z,100998.97
2022-09-07T11:40:24.657Z,100986.50
2022-09-07T11:43:16.260Z,100984.75
2022-09-07T11:46:04.887Z,100979.69
2022-09-07T11:48:53.150Z,100989.34
2022-09-07T11:51:41.594Z,100967.41
2022-09-07T11:54:34.313Z,100968.00
2022-09-07T11:57:27.572Z,100979.16
2022-09-07T12:00:18.843Z,100977.78
2022-09-07T12:03:23.835Z,100971.81
2022-09-07T12:06:09.048Z,100977.44
2022-09-07T12:08:54.328Z,100977.22
2022-09-07T12:11:42.257Z,100978.00
2022-09-07T12:14:46.110Z,100976.34
2022-09-07T12:17:40.160Z,100973.31
2022-09-07T12:20:27.711Z,100956.53
2022-09-07T12:23:15.438Z,100973.75
2022-09-07T12:26:19.751Z,100978.28
2022-09-07T12:29:17.562Z,100971.81
2022-09-07T12:35:27.262Z,100970.97
2022-09-07T12:38:18.201Z,100973.06
2022-09-07T12:41:23.389Z,100968.09
2022-09-07T12:44:14.813Z,100962.94
2022-09-07T12:47:23.379Z,100961.03
2022-09-07T12:50:39.258Z,100967.81
2022-09-07T12:53:28.909Z,100956.63
2022-09-07T12:56:23.045Z,100954.25
2022-09-07T12:59:25.976Z,100952.75
2022-09-07T13:02:30.203Z,100949.03
2022-09-07T13:05:20.099Z,100953.00
2022-09-07T13:08:24.371Z,100955.97
2022-09-07T13:11:21.538Z,100939.69
2022-09-07T13:14:27.093Z,100946.59
2022-09-07T13:17:31.263Z,100951.66
2022-09-07T13:20:21.358Z,100939.88
2022-09-07T13:23:08.592Z,100943.66
2022-09-07T13:25:55.961Z,100947.13
2022-09-07T13:28:58.132Z,100943.94
2022-09-07T13:31:43.324Z,100940.44
2022-09-07T13:34:34.333Z,100938.06
2022-09-07T13:37:21.814Z,100931.59
2022-09-07T13:40:09.938Z,100932.22
2022-09-07T13:42:56.309Z,100937.88
2022-09-07T13:45:45.483Z,100925.69
2022-09-07T13:48:40.817Z,100923.72
2022-09-07T13:51:29.171Z,100923.06
2022-09-07T13:54:21.805Z,100929.97
2022-09-07T13:57:18.567Z,100923.84
2022-09-07T14:00:04.134Z,100916.25
2022-09-07T14:02:56.500Z,100909.47
2022-09-07T14:05:43.433Z,100908.44
2022-09-07T14:08:29.563Z,100913.88
2022-09-07T14:11:18.330Z,100922.56
2022-09-07T14:14:16.895Z,100912.28
2022-09-07T14:17:07.565Z,100909.38
2022-09-07T14:19:58.940Z,100915.22
2022-09-07T14:22:44.646Z,100921.69
2022-09-07T14:25:30.095Z,100922.09
2022-09-07T14:28:31.961Z,100913.59
2022-09-07T14:31:19.603Z,100908.09
2022-09-07T14:34:06.597Z,100923.00
2022-09-07T14:36:52.631Z,100914.94
2022-09-07T14:39:42.030Z,100917.13
2022-09-07T14:42:27.536Z,100911.44
2022-09-07T14:45:32.705Z,100919.34
2022-09-07T14:48:26.450Z,100918.00
2022-09-07T14:51:32.716Z,100913.66
2022-09-07T14:54:28.708Z,100912.00
2022-09-07T14:57:16.863Z,100898.22
2022-09-07T15:00:19.194Z,100898.19
2022-09-07T15:03:22.894Z,100899.50
2022-09-07T15:06:09.799Z,100887.03
2022-09-07T15:08:55.236Z,100887.84
2022-09-07T15:11:40.384Z,100889.50
2022-09-07T15:14:25.872Z,100879.16
2022-09-07T15:20:40.285Z,100877.31
2022-09-07T15:23:25.596Z,100874.31
2022-09-07T15:27:01.967Z,100879.69
2022-09-07T15:29:19.249Z,100868.84
2022-09-07T15:32:08.861Z,100872.44
2022-09-07T15:34:54.065Z,100868.44
2022-09-07T15:41:18.148Z,100858.94
2022-09-07T15:43:52.729Z,100861.31
2022-09-07T15:46:38.537Z,100852.72
2022-09-07T15:49:24.925Z,100851.56
2022-09-07T15:52:11.971Z,100854.44
2022-09-07T15:54:57.288Z,100853.06
2022-09-07T15:57:54.519Z,100852.59
2022-09-07T16:00:42.550Z,100857.75
2022-09-07T16:03:28.254Z,100855.47
2022-09-07T16:06:14.072Z,100860.69
2022-09-07T16:08:59.435Z,100859.53
2022-09-07T16:11:44.662Z,100855.81
2022-09-07T16:14:30.720Z,100849.63
2022-09-07T16:20:21.256Z,100856.84
2022-09-07T16:23:15.207Z,100853.31
2022-09-07T16:26:02.286Z,100852.56
2022-09-07T16:28:48.672Z,100852.19
2022-09-07T16:31:34.391Z,100857.72
2022-09-07T16:34:21.233Z,100856.13
2022-09-07T16:37:06.839Z,100861.97
2022-09-07T16:39:52.684Z,100862.00
2022-09-07T16:42:38.052Z,100855.50
2022-09-07T16:48:29.666Z,100858.88
2022-09-07T16:51:16.472Z,100867.84
2022-09-07T16:54:01.921Z,100867.47
2022-09-07T16:56:47.383Z,100859.13
2022-09-07T16:59:32.736Z,100864.81
2022-09-07T17:02:18.189Z,100859.69
2022-09-07T17:05:03.689Z,100860.78
2022-09-07T17:07:48.895Z,100864.66
2022-09-07T17:10:33.929Z,100862.34
2022-09-07T17:13:19.913Z,100864.69
2022-09-07T17:16:08.300Z,100864.44
2022-09-07T17:22:00.161Z,100862.81
2022-09-07T17:24:45.222Z,100856.78
2022-09-07T17:27:30.685Z,100856.00
2022-09-07T17:30:16.283Z,100853.53
2022-09-07T17:33:01.585Z,100854.00
2022-09-07T17:35:46.769Z,100855.25
2022-09-07T17:41:37.138Z,100848.56
2022-09-07T17:44:23.259Z,100860.78
2022-09-07T17:47:08.437Z,100854.16
2022-09-07T17:49:53.807Z,100856.88
2022-09-07T17:52:41.083Z,100850.22
2022-09-07T17:55:31.600Z,100858.25
2022-09-07T17:58:16.849Z,100868.63
2022-09-07T18:01:03.421Z,100866.78
2022-09-07T18:03:48.536Z,100866.22
2022-09-07T18:06:34.042Z,100880.22
2022-09-07T18:09:19.733Z,100881.72
2022-09-07T18:12:05.441Z,100891.09
2022-09-07T18:14:50.868Z,100894.31
2022-09-07T18:17:35.953Z,100902.78
2022-09-07T18:20:22.704Z,100905.81
2022-09-07T18:23:08.108Z,100904.25
2022-09-07T18:25:57.570Z,100906.78
2022-09-07T18:31:48.130Z,100917.25
2022-09-07T18:34:33.348Z,100907.25
2022-09-07T18:37:19.527Z,100913.25
2022-09-07T18:40:05.067Z,100922.13
2022-09-07T18:42:50.768Z,100914.97
2022-09-07T18:45:37.544Z,100911.13
2022-09-07T18:48:23.023Z,100919.31
2022-09-07T18:51:09.810Z,100913.66
2022-09-07T18:53:55.653Z,100904.63
2022-09-07T18:56:41.105Z,100909.50
2022-09-07T18:59:26.539Z,100899.38
2022-09-07T19:02:12.017Z,100903.25
2022-09-07T19:08:03.764Z,100887.91
2022-09-07T19:10:49.010Z,100896.47
2022-09-07T19:13:35.098Z,100889.72
2022-09-07T19:16:20.522Z,100887.28
2022-09-07T19:19:06.887Z,100888.16
2022-09-07T19:21:52.340Z,100880.53
2022-09-07T19:24:37.827Z,100883.13
2022-09-07T19:27:23.226Z,100883.38
2022-09-07T19:30:08.897Z,100879.59
2022-09-07T19:32:54.182Z,100887.13
2022-09-07T19:35:39.411Z,100893.81
2022-09-07T19:38:24.812Z,100904.44
2022-09-07T19:41:12.834Z,100906.16
2022-09-07T19:43:58.435Z,100888.91
2022-09-07T19:46:45.198Z,100879.34
2022-09-07T19:49:30.523Z,100895.19
2022-09-07T19:52:16.264Z,100889.88
2022-09-07T19:55:03.319Z,100888.91
2022-09-07T19:57:50.609Z,100888.41
2022-09-07T20:00:41.726Z,100882.13
2022-09-07T20:03:27.502Z,100897.59
2022-09-07T20:06:14.541Z,100893.25
2022-09-07T20:09:01.247Z,100895.44
2022-09-07T20:11:47.879Z,100889.13
2022-09-07T20:14:33.495Z,100898.44
2022-09-07T20:17:19.013Z,100889.16
2022-09-07T20:20:05.153Z,100886.72
2022-09-07T20:22:50.385Z,100886.50
2022-09-07T20:25:35.460Z,100892.53
2022-09-07T20:28:20.999Z,100891.78
2022-09-07T20:31:08.313Z,100893.38
2022-09-07T20:33:53.628Z,100892.28
2022-09-07T20:36:38.769Z,100886.94
2022-09-07T20:39:24.286Z,100882.84
2022-09-07T20:42:09.638Z,100901.19
2022-09-07T20:44:55.109Z,100899.50
2022-09-07T20:47:40.392Z,100900.50
2022-09-07T20:50:25.831Z,100903.38
2022-09-07T20:53:11.278Z,100895.13
2022-09-07T20:56:00.629Z,100901.88
2022-09-07T20:58:46.876Z,100912.44
2022-09-07T21:01:32.582Z,100925.91
2022-09-07T21:04:18.099Z,100940.59
2022-09-07T21:07:03.286Z,100935.91
2022-09-07T21:09:49.174Z,100923.13
2022-09-07T21:12:34.608Z,100928.47
2022-09-07T21:15:19.951Z,100922.44
2022-09-07T21:18:05.865Z,100911.94
2022-09-07T21:21:18.466Z,100901.91
2022-09-07T21:24:03.316Z,100909.78
2022-09-07T21:26:49.038Z,100902.19
2022-09-07T21:29:34.103Z,100892.78
2022-09-07T21:32:19.561Z,100891.22
2022-09-07T21:35:05.021Z,100902.91
2022-09-07T21:37:50.397Z,100896.97
2022-09-07T21:40:39.768Z,100881.91
2022-09-07T21:43:25.261Z,100893.00
2022-09-07T21:46:12.076Z,100888.41
2022-09-07T21:48:57.931Z,100885.50
2022-09-07T21:51:43.193Z,100869.69
2022-09-07T21:54:28.655Z,100867.75
2022-09-07T21:57:14.129Z,100870.03
2022-09-07T21:59:59.458Z,100871.88
2022-09-07T22:02:44.833Z,100872.25
2022-09-07T22:05:30.178Z,100864.41
2022-09-07T22:08:15.737Z,100873.94
2022-09-07T22:11:05.956Z,100871.63
2022-09-07T22:13:55.476Z,100865.13
2022-09-07T22:16:40.837Z,100857.63
2022-09-07T22:19:26.454Z,100866.91
2022-09-07T22:22:12.042Z,100845.28
2022-09-07T22:24:57.117Z,100855.16
2022-09-07T22:27:42.581Z,100865.69
2022-09-07T22:30:27.822Z,100865.78
2022-09-07T22:33:13.171Z,100869.19
2022-09-07T22:36:11.157Z,100870.03
2022-09-07T22:38:57.761Z,100868.91
2022-09-07T22:41:43.497Z,100864.44
2022-09-07T22:44:29.980Z,100856.47
2022-09-07T22:47:15.661Z,100851.88
2022-09-07T22:50:01.058Z,100847.91
2022-09-07T22:52:46.650Z,100835.47
2022-09-07T22:55:31.821Z,100831.25
2022-09-07T22:58:17.350Z,100824.38
2022-09-07T23:01:03.562Z,100820.78
2022-09-07T23:03:49.247Z,100810.00
2022-09-07T23:06:36.515Z,100814.59
2022-09-07T23:09:21.989Z,100815.91
2022-09-07T23:12:07.503Z,100806.75
2022-09-07T23:14:52.939Z,100790.59
2022-09-07T23:17:37.942Z,100789.25
2022-09-07T23:20:25.357Z,100788.31
2022-09-07T23:23:10.896Z,100794.91
2022-09-07T23:25:56.080Z,100798.53
2022-09-07T23:28:41.241Z,100805.00
2022-09-07T23:31:27.332Z,100798.56
2022-09-07T23:34:12.677Z,100797.41
2022-09-07T23:36:57.984Z,100796.78
2022-09-07T23:39:44.311Z,100789.91
2022-09-07T23:42:29.533Z,100791.38
2022-09-07T23:45:15.189Z,100787.09
2022-09-07T23:48:00.423Z,100784.75
2022-09-07T23:50:45.990Z,100778.63
2022-09-07T23:53:31.262Z,100783.94
2022-09-07T23:56:16.513Z,100778.63
2022-09-07T23:59:01.735Z,100781.66
